Time;durP1;ratioP1;P1;durP2;ratioP2;P2;SDS_P1;SDS_P2;PMS_P1;PMS_P2;Temp;Humidity;BMP_temperature;BMP_pressure;BME280_temperature;BME280_humidity;BME280_pressure;Samples;Min_cycle;Max_cycle;Signal;HPM_P1;HPM_P2
2022/04/20 00:01:13;;;;;;;7.38;3.45;;;15.80;54.40;;;;;;5074687;28;20028;-74
2022/04/20 00:03:38;;;;;;;7.30;3.30;;;15.90;53.90;;;;;;5074210;28;20024;-74
2022/04/20 00:06:05;;;;;;;5.18;2.65;;;15.90;53.40;;;;;;5074449;28;20024;-74
2022/04/20 00:08:32;;;;;;;5.57;2.95;;;16.00;53.50;;;;;;5074123;28;20031;-73
2022/04/20 00:10:58;;;;;;;5.30;2.63;;;16.00;53.30;;;;;;5074165;28;20106;-73
2022/04/20 00:13:23;;;;;;;2.60;1.83;;;16.10;53.20;;;;;;5078471;28;20024;-71
2022/04/20 00:15:49;;;;;;;4.80;2.05;;;16.20;53.40;;;;;;5080456;28;20515;-74
2022/04/20 00:18:15;;;;;;;4.57;2.13;;;16.40;53.20;;;;;;5074269;28;20055;-74
2022/04/20 00:20:40;;;;;;;2.80;1.92;;;16.50;52.50;;;;;;5074085;28;20383;-74
2022/04/20 00:23:06;;;;;;;3.35;2.00;;;16.60;52.30;;;;;;5074186;28;20380;-74
2022/04/20 00:25:31;;;;;;;4.10;2.60;;;16.60;52.10;;;;;;5074125;28;20029;-74
2022/04/20 00:27:57;;;;;;;3.88;2.13;;;16.70;51.50;;;;;;5073163;28;20033;-74
2022/04/20 00:30:22;;;;;;;4.10;1.85;;;16.70;51.30;;;;;;5073883;28;20032;-74
2022/04/20 00:32:48;;;;;;;5.53;1.70;;;16.70;51.40;;;;;;5073754;28;20047;-74
2022/04/20 00:35:13;;;;;;;3.25;1.70;;;16.70;51.30;;;;;;5073919;28;20460;-74
2022/04/20 00:37:43;;;;;;;4.50;2.13;;;16.70;51.00;;;;;;5073721;28;20107;-74
2022/04/20 00:40:09;;;;;;;3.47;1.83;;;16.70;50.90;;;;;;5073972;28;20025;-74
2022/04/20 00:42:39;;;;;;;3.97;1.73;;;16.70;51.30;;;;;;5073770;28;20028;-74
2022/04/20 00:45:07;;;;;;;3.55;2.10;;;16.70;50.60;;;;;;5073773;28;20024;-74
2022/04/20 00:47:37;;;;;;;7.15;2.90;;;16.70;50.70;;;;;;5073505;28;20028;-74
2022/04/20 00:50:03;;;;;;;4.18;1.75;;;16.60;49.90;;;;;;5073830;28;20024;-74
2022/04/20 00:52:29;;;;;;;4.53;1.55;;;16.50;50.60;;;;;;5073426;28;20048;-74
2022/04/20 00:54:55;;;;;;;2.45;1.50;;;16.60;51.20;;;;;;5073421;28;20055;-74
2022/04/20 00:57:20;;;;;;;3.50;2.08;;;16.70;51.10;;;;;;5073565;28;20028;-74
2022/04/20 00:59:48;;;;;;;4.90;1.98;;;16.70;50.20;;;;;;5073383;28;20028;-74
2022/04/20 01:02:14;;;;;;;3.25;2.10;;;16.60;50.10;;;;;;5073388;28;20060;-74
2022/04/20 01:04:39;;;;;;;2.25;1.70;;;16.40;50.00;;;;;;5073596;28;20027;-74
2022/04/20 01:07:12;;;;;;;4.32;1.80;;;16.40;50.70;;;;;;5073434;28;20021;-74
2022/04/20 01:09:39;;;;;;;4.07;2.17;;;16.40;50.20;;;;;;5076207;28;20055;-72
2022/04/20 01:12:06;;;;;;;3.45;1.30;;;16.50;50.40;;;;;;5078310;28;20047;-74
2022/04/20 01:14:31;;;;;;;2.55;1.02;;;16.40;50.30;;;;;;5073471;28;20482;-74
2022/04/20 01:16:57;;;;;;;2.00;1.17;;;16.50;50.70;;;;;;5073466;28;20115;-74
2022/04/20 01:19:30;;;;;;;4.03;1.20;;;16.60;50.90;;;;;;5073423;28;20032;-74
2022/04/20 01:21:56;;;;;;;3.25;2.15;;;16.70;50.70;;;;;;5073000;28;20097;-74
2022/04/20 01:24:21;;;;;;;5.22;1.67;;;16.60;49.00;;;;;;5073458;28;20020;-74
2022/04/20 01:26:47;;;;;;;5.18;2.20;;;16.50;48.50;;;;;;5073484;28;20025;-74
2022/04/20 01:29:14;;;;;;;2.70;1.80;;;16.40;48.90;;;;;;5073120;28;20391;-74
2022/04/20 01:31:40;;;;;;;2.63;1.92;;;16.20;49.20;;;;;;5073083;28;20028;-74
2022/04/20 01:34:06;;;;;;;3.53;1.80;;;16.10;49.70;;;;;;5073079;28;20025;-74
2022/04/20 01:36:31;;;;;;;3.50;1.90;;;16.00;49.30;;;;;;5072860;28;20029;-74
2022/04/20 01:38:57;;;;;;;5.43;1.90;;;16.00;49.20;;;;;;5075873;28;20028;-74
2022/04/20 01:41:22;;;;;;;3.75;1.70;;;16.00;49.20;;;;;;5077303;28;20024;-74
2022/04/20 01:43:48;;;;;;;3.22;1.73;;;15.90;49.10;;;;;;5076956;28;20031;-73
2022/04/20 01:46:15;;;;;;;5.60;1.73;;;15.80;49.10;;;;;;5077131;28;20029;-74
2022/04/20 01:48:40;;;;;;;2.25;1.58;;;15.80;49.50;;;;;;5077201;28;20031;-74
2022/04/20 01:53:50;;;;;;;3.20;1.63;;;15.80;49.50;;;;;;5076957;28;20035;-74
2022/04/20 01:56:16;;;;;;;4.63;1.67;;;15.70;49.30;;;;;;5076665;28;20033;-74
2022/04/20 01:58:41;;;;;;;5.05;1.58;;;15.70;49.10;;;;;;5077085;28;20021;-74
2022/04/20 02:02:34;;;;;;;3.58;1.98;;;15.70;49.50;;;;;;5077027;28;20040;-74
2022/04/20 02:03:52;;;;;;;2.85;2.03;;;15.60;49.10;;;;;;5077037;28;20021;-72
2022/04/20 02:06:18;;;;;;;3.78;1.45;;;15.50;48.90;;;;;;5085440;28;20069;-72
2022/04/20 02:08:43;;;;;;;2.53;1.90;;;15.20;49.40;;;;;;5079482;28;20024;-74
2022/04/20 02:11:09;;;;;;;4.00;1.92;;;15.20;49.40;;;;;;5076221;28;20049;-74
2022/04/20 02:13:35;;;;;;;2.65;1.70;;;15.20;49.00;;;;;;5076777;28;20048;-74
2022/04/20 02:16:01;;;;;;;3.75;1.42;;;15.00;49.70;;;;;;5076452;28;20070;-74
2022/04/20 02:18:26;;;;;;;3.05;1.45;;;15.00;50.00;;;;;;5076666;28;20017;-74
2022/04/20 02:20:52;;;;;;;3.55;1.70;;;15.10;49.90;;;;;;5076050;28;20021;-74
2022/04/20 02:23:18;;;;;;;2.75;1.30;;;15.10;49.30;;;;;;5076216;28;20025;-74
2022/04/20 02:25:43;;;;;;;2.70;1.70;;;15.10;49.40;;;;;;5076236;28;20030;-74
2022/04/20 02:28:09;;;;;;;6.20;1.83;;;15.10;49.40;;;;;;5076471;28;20044;-74
2022/04/20 02:30:34;;;;;;;3.85;1.63;;;15.10;49.40;;;;;;5076384;28;20383;-74
2022/04/20 02:33:00;;;;;;;4.10;1.40;;;15.00;48.90;;;;;;5075817;28;20020;-74
2022/04/20 02:35:27;;;;;;;2.63;1.45;;;15.00;48.80;;;;;;5075944;28;20025;-74
2022/04/20 02:37:53;;;;;;;2.92;1.60;;;15.00;48.40;;;;;;5075909;28;20485;-74
2022/04/20 02:40:19;;;;;;;2.38;1.10;;;15.00;48.20;;;;;;5076272;28;20028;-74
2022/04/20 02:42:45;;;;;;;2.35;1.52;;;14.90;48.80;;;;;;5076093;28;20070;-74
2022/04/20 02:45:11;;;;;;;4.32;1.80;;;14.90;48.80;;;;;;5076069;28;20020;-74
2022/04/20 02:47:37;;;;;;;3.60;1.35;;;14.90;49.30;;;;;;5075811;28;20139;-74
2022/04/20 02:50:02;;;;;;;3.15;1.70;;;14.80;49.10;;;;;;5075182;28;20107;-74
2022/04/20 02:52:28;;;;;;;1.85;1.48;;;14.90;49.20;;;;;;5075668;28;20063;-74
2022/04/20 02:54:54;;;;;;;2.60;1.23;;;14.90;49.10;;;;;;5075684;28;20025;-74
2022/04/20 02:57:19;;;;;;;2.85;1.70;;;14.90;49.20;;;;;;5075603;28;20098;-74
2022/04/20 02:59:45;;;;;;;2.17;1.33;;;14.90;49.10;;;;;;5075905;28;20021;-74
2022/04/20 03:02:12;;;;;;;2.40;1.23;;;14.90;49.10;;;;;;5079508;28;20031;-72
2022/04/20 03:04:37;;;;;;;5.45;1.55;;;14.90;48.80;;;;;;5079508;28;20089;-74
2022/04/20 03:07:03;;;;;;;1.70;0.82;;;14.80;48.70;;;;;;5075481;28;20032;-74
2022/04/20 03:09:28;;;;;;;2.72;1.50;;;14.70;49.40;;;;;;5075455;28;20048;-74
2022/04/20 03:11:54;;;;;;;3.17;1.67;;;14.70;49.10;;;;;;5075614;28;20357;-74
2022/04/20 03:14:20;;;;;;;3.03;1.52;;;14.50;49.40;;;;;;5075666;28;20112;-74
2022/04/20 03:16:45;;;;;;;2.53;1.30;;;14.40;49.40;;;;;;5075102;28;20089;-74
2022/04/20 03:19:11;;;;;;;2.40;1.48;;;14.40;49.90;;;;;;5075147;28;20070;-74
2022/04/20 03:21:37;;;;;;;4.03;1.33;;;14.40;49.60;;;;;;5075017;28;20043;-74
2022/04/20 03:24:02;;;;;;;3.80;1.20;;;14.50;49.80;;;;;;5075378;28;20368;-74
2022/04/20 03:26:28;;;;;;;1.30;0.90;;;14.50;49.80;;;;;;5075101;28;20099;-75
2022/04/20 03:28:54;;;;;;;3.45;1.33;;;14.60;49.70;;;;;;5075312;28;20024;-74
2022/04/20 03:31:20;;;;;;;1.17;0.90;;;14.60;49.50;;;;;;5074968;28;20028;-74
2022/04/20 03:33:45;;;;;;;2.08;1.15;;;14.50;49.70;;;;;;5074982;28;20028;-74
2022/04/20 03:36:11;;;;;;;2.42;1.48;;;14.50;49.70;;;;;;5074756;28;20480;-74
2022/04/20 03:38:37;;;;;;;2.60;1.77;;;14.30;49.70;;;;;;5075130;28;20020;-74
2022/04/20 03:41:04;;;;;;;4.25;1.08;;;14.20;50.30;;;;;;5074772;28;20032;-74
2022/04/20 03:43:30;;;;;;;3.38;2.35;;;14.20;51.90;;;;;;5075057;28;20020;-74
2022/04/20 03:45:56;;;;;;;3.03;1.20;;;14.30;50.70;;;;;;5074804;28;20505;-75
2022/04/20 03:48:22;;;;;;;2.92;1.30;;;14.20;50.50;;;;;;5074786;28;20102;-74
2022/04/20 03:50:48;;;;;;;3.90;1.30;;;14.00;50.70;;;;;;5074269;28;20024;-75
2022/04/20 03:53:13;;;;;;;5.65;1.30;;;14.00;51.00;;;;;;5074899;28;20460;-74
2022/04/20 03:55:39;;;;;;;4.00;1.10;;;13.90;50.60;;;;;;5074485;28;20090;-74
2022/04/20 03:58:05;;;;;;;1.98;1.02;;;13.80;51.50;;;;;;5079358;28;20055;-72
2022/04/20 04:00:31;;;;;;;2.85;1.70;;;13.90;51.70;;;;;;5079982;28;20024;-74
2022/04/20 04:02:57;;;;;;;3.38;1.30;;;13.90;51.20;;;;;;5073433;28;20541;-75
2022/04/20 04:05:23;;;;;;;2.53;1.35;;;13.90;51.10;;;;;;5074157;28;20112;-74
2022/04/20 04:07:49;;;;;;;2.97;1.20;;;13.70;51.50;;;;;;5074393;28;20020;-74
2022/04/20 04:10:14;;;;;;;3.55;1.40;;;13.50;52.30;;;;;;5073940;28;20049;-75
2022/04/20 04:12:40;;;;;;;1.23;0.90;;;13.50;51.90;;;;;;5074300;28;20021;-75
2022/04/20 04:15:07;;;;;;;3.38;1.13;;;13.50;52.40;;;;;;5074173;28;20035;-75
2022/04/20 04:17:33;;;;;;;4.15;1.52;;;13.60;52.30;;;;;;5074199;28;20078;-75
2022/04/20 04:19:59;;;;;;;2.00;1.30;;;13.70;51.80;;;;;;5074274;28;20016;-75
2022/04/20 04:22:24;;;;;;;2.45;1.20;;;13.60;52.00;;;;;;5074267;28;20035;-75
2022/04/20 04:24:50;;;;;;;3.05;1.27;;;13.70;52.20;;;;;;5074204;28;20095;-74
2022/04/20 04:27:17;;;;;;;2.78;1.48;;;13.80;51.90;;;;;;5074054;28;20099;-75
2022/04/20 04:29:42;;;;;;;3.85;1.70;;;13.90;51.90;;;;;;5073968;28;20032;-75
2022/04/20 04:32:08;;;;;;;2.38;1.30;;;13.90;51.30;;;;;;5073820;28;20070;-75
2022/04/20 04:34:34;;;;;;;1.70;1.15;;;13.80;51.40;;;;;;5073694;28;20111;-74
2022/04/20 04:37:00;;;;;;;2.78;1.38;;;13.80;51.80;;;;;;5073577;28;20437;-75
2022/04/20 04:39:28;;;;;;;3.08;1.42;;;13.90;52.10;;;;;;5073760;28;20025;-75
2022/04/20 04:41:56;;;;;;;3.03;1.10;;;13.80;51.50;;;;;;5073340;28;20483;-75
2022/04/20 04:44:22;;;;;;;2.63;1.13;;;13.70;51.60;;;;;;5074031;28;20371;-75
2022/04/20 04:49:32;;;;;;;4.43;1.65;;;13.80;51.40;;;;;;5073649;28;20039;-75
2022/04/20 04:51:59;;;;;;;3.00;1.35;;;13.70;51.40;;;;;;5073693;28;20387;-74
2022/04/20 04:54:25;;;;;;;2.78;1.30;;;13.60;51.60;;;;;;5077133;28;20040;-72
2022/04/20 04:56:51;;;;;;;3.92;1.60;;;13.40;52.00;;;;;;5079073;28;20044;-75
2022/04/20 04:59:17;;;;;;;1.73;1.10;;;13.30;52.30;;;;;;5073791;28;20070;-75
2022/04/20 05:01:43;;;;;;;4.85;1.83;;;13.20;52.70;;;;;;5073636;28;20028;-75
2022/04/20 05:04:09;;;;;;;2.80;1.55;;;13.30;52.60;;;;;;5073493;28;20023;-75
2022/04/20 05:06:36;;;;;;;1.80;1.30;;;13.20;52.50;;;;;;5073712;28;20031;-74
2022/04/20 05:09:01;;;;;;;3.35;1.23;;;13.10;54.10;;;;;;5073116;28;20082;-74
2022/04/20 05:11:27;;;;;;;2.65;1.30;;;13.30;53.00;;;;;;5073563;28;20041;-75
2022/04/20 05:13:53;;;;;;;5.68;1.08;;;13.20;52.60;;;;;;5072744;28;20089;-74
2022/04/20 05:16:19;;;;;;;2.60;1.17;;;13.30;53.30;;;;;;5072950;28;20032;-75
2022/04/20 05:18:44;;;;;;;4.00;1.30;;;13.40;53.00;;;;;;5073033;28;20372;-75
2022/04/20 05:21:10;;;;;;;3.28;1.48;;;13.40;53.20;;;;;;5073310;28;20024;-75
2022/04/20 05:23:36;;;;;;;4.07;1.40;;;13.50;52.50;;;;;;5071805;28;20048;-75
2022/04/20 05:26:02;;;;;;;2.15;1.13;;;13.40;52.20;;;;;;5073140;28;20039;-75
2022/04/20 05:28:27;;;;;;;2.22;1.17;;;13.30;52.80;;;;;;5073208;28;20024;-75
2022/04/20 05:30:54;;;;;;;2.38;1.30;;;13.30;52.90;;;;;;5072841;28;20032;-75
2022/04/20 05:33:20;;;;;;;3.72;1.10;;;13.30;52.80;;;;;;5072800;28;20384;-75
2022/04/20 05:35:46;;;;;;;3.25;1.20;;;13.30;52.90;;;;;;5072511;28;20051;-75
2022/04/20 05:43:39;;;;;;;2.40;0.95;;;13.40;53.00;;;;;;5069356;28;20028;-77
2022/04/20 05:46:06;;;;;;;3.20;1.42;;;13.40;52.20;;;;;;5070030;28;20037;-77
2022/04/20 05:48:35;;;;;;;3.40;1.25;;;13.50;52.60;;;;;;5069598;28;20480;-76
2022/04/20 05:51:00;;;;;;;4.03;1.10;;;13.40;52.30;;;;;;5085493;28;20028;-76
2022/04/20 05:53:26;;;;;;;6.00;0.98;;;13.30;53.30;;;;;;5091678;28;20037;-77
2022/04/20 05:55:52;;;;;;;3.35;1.00;;;13.40;52.20;;;;;;5076795;28;20036;-77
2022/04/20 05:58:18;;;;;;;1.67;1.17;;;13.50;52.20;;;;;;5070782;28;20028;-76
2022/04/20 06:00:43;;;;;;;3.38;1.50;;;13.60;52.10;;;;;;5071195;28;20035;-75
2022/04/20 06:03:09;;;;;;;2.05;0.70;;;13.50;52.00;;;;;;5069940;28;20104;-75
2022/04/20 06:05:34;;;;;;;2.65;1.30;;;13.40;52.50;;;;;;5070853;28;20024;-75
2022/04/20 06:08:00;;;;;;;4.63;1.45;;;13.60;52.90;;;;;;5071834;28;20028;-74
2022/04/20 06:10:29;;;;;;;5.63;1.90;;;13.70;52.10;;;;;;5071404;28;20046;-76
2022/04/20 06:12:54;;;;;;;2.80;1.30;;;13.70;52.20;;;;;;5072838;28;20416;-76
2022/04/20 06:15:20;;;;;;;2.95;1.20;;;13.70;52.00;;;;;;5072472;28;20097;-76
2022/04/20 06:17:45;;;;;;;5.75;1.30;;;13.60;52.20;;;;;;5070396;28;20033;-75
2022/04/20 06:20:11;;;;;;;3.58;1.40;;;13.60;52.30;;;;;;5069755;28;20463;-78
2022/04/20 06:22:37;;;;;;;2.45;0.95;;;13.60;51.80;;;;;;5071436;28;20033;-78
2022/04/20 06:25:02;;;;;;;4.38;1.40;;;13.70;51.70;;;;;;5072495;28;20013;-78
2022/04/20 06:27:32;;;;;;;2.63;1.52;;;13.80;52.20;;;;;;5075336;28;20026;-77
2022/04/20 06:29:58;;;;;;;4.28;1.20;;;13.80;52.00;;;;;;5074456;28;20028;-77
2022/04/20 06:32:24;;;;;;;5.20;1.35;;;13.60;52.20;;;;;;5074627;28;20028;-77
2022/04/20 06:34:51;;;;;;;3.22;1.25;;;13.60;52.60;;;;;;5074903;28;20094;-77
2022/04/20 06:37:18;;;;;;;6.97;1.30;;;13.60;52.40;;;;;;5074850;28;20047;-76
2022/04/20 06:39:44;;;;;;;5.22;1.13;;;13.70;52.70;;;;;;5073075;28;20028;-78
2022/04/20 06:42:09;;;;;;;4.78;1.40;;;13.90;53.20;;;;;;5063554;28;20017;-77
2022/04/20 06:44:35;;;;;;;2.33;1.25;;;14.00;52.20;;;;;;5075058;28;20107;-76
2022/04/20 06:47:00;;;;;;;2.88;1.27;;;13.90;51.30;;;;;;5081125;28;20028;-77
2022/04/20 06:49:27;;;;;;;4.80;1.48;;;13.90;51.20;;;;;;5091660;28;20054;-75
2022/04/20 07:00:08;;;;;;;2.72;1.15;;;14.10;51.60;;;;;;5074251;28;20438;-76
2022/04/20 07:02:34;;;;;;;4.43;1.42;;;14.20;51.20;;;;;;5075747;28;20043;-76
2022/04/20 07:05:00;;;;;;;2.17;1.13;;;14.20;51.50;;;;;;5075646;28;20456;-78
2022/04/20 07:07:25;;;;;;;6.82;1.38;;;14.30;51.70;;;;;;5075764;28;20103;-77
2022/04/20 07:09:51;;;;;;;5.32;1.27;;;14.50;51.50;;;;;;5075112;28;20044;-77
2022/04/20 07:12:16;;;;;;;3.92;1.38;;;14.50;51.00;;;;;;5075609;28;20044;-77
2022/04/20 07:14:42;;;;;;;3.85;1.00;;;14.70;50.80;;;;;;5075505;28;20028;-76
2022/04/20 07:17:08;;;;;;;3.53;1.38;;;14.70;51.10;;;;;;5075049;28;20484;-76
2022/04/20 07:19:34;;;;;;;6.10;1.30;;;14.80;50.40;;;;;;5075509;28;20029;-76
2022/04/20 07:22:00;;;;;;;7.20;1.70;;;14.90;49.90;;;;;;5075083;28;20024;-78
2022/04/20 07:24:26;;;;;;;3.05;1.45;;;15.00;49.80;;;;;;5075503;28;20048;-76
2022/04/20 07:26:52;;;;;;;2.83;1.20;;;15.10;49.80;;;;;;5075441;28;20492;-77
2022/04/20 07:29:17;;;;;;;3.97;1.20;;;15.10;50.00;;;;;;5075326;28;20369;-77
2022/04/20 07:31:43;;;;;;;5.32;1.33;;;15.20;50.00;;;;;;5074820;28;20024;-77
2022/04/20 07:34:08;;;;;;;4.93;1.77;;;15.30;50.40;;;;;;5075283;28;20353;-77
2022/04/20 07:36:34;;;;;;;2.78;1.08;;;15.40;50.20;;;;;;5074803;28;20047;-77
2022/04/20 07:39:00;;;;;;;4.05;1.30;;;15.30;51.00;;;;;;5075036;28;20082;-77
2022/04/20 07:41:25;;;;;;;4.95;1.40;;;15.30;50.40;;;;;;5074923;28;20021;-77
2022/04/20 07:43:51;;;;;;;4.75;1.45;;;15.30;50.80;;;;;;5083701;28;20032;-74
2022/04/20 07:46:19;;;;;;;8.23;1.60;;;15.50;50.50;;;;;;5085048;28;20165;-77
2022/04/20 07:48:45;;;;;;;7.78;2.40;;;15.50;50.40;;;;;;5075876;28;20016;-76
2022/04/20 07:51:10;;;;;;;6.20;1.42;;;15.70;51.10;;;;;;5074552;28;20491;-77
2022/04/20 07:53:36;;;;;;;5.22;1.80;;;15.70;50.70;;;;;;5074461;28;20032;-76
2022/04/20 07:56:02;;;;;;;8.60;1.40;;;15.80;50.20;;;;;;5074507;28;20036;-76
2022/04/20 07:58:27;;;;;;;3.28;1.35;;;15.90;51.30;;;;;;5074228;28;20031;-76
2022/04/20 08:00:53;;;;;;;2.83;1.17;;;16.00;50.80;;;;;;5074153;28;20021;-77
2022/04/20 08:03:19;;;;;;;4.10;1.30;;;16.10;50.70;;;;;;5074630;28;20055;-77
2022/04/20 08:05:49;;;;;;;3.45;1.42;;;16.20;50.40;;;;;;5073962;28;20052;-76
2022/04/20 08:08:16;;;;;;;3.92;1.60;;;16.20;51.10;;;;;;5074649;28;20436;-76
2022/04/20 08:10:42;;;;;;;2.90;1.40;;;16.30;51.10;;;;;;5072660;28;21359;-77
2022/04/20 08:15:52;;;;;;;2.35;1.08;;;16.50;50.00;;;;;;5073110;28;20047;-77
2022/04/20 08:18:18;;;;;;;5.07;1.40;;;16.50;49.00;;;;;;5072688;28;20024;-77
2022/04/20 08:20:43;;;;;;;7.05;1.50;;;16.70;48.80;;;;;;5073225;28;20046;-77
2022/04/20 08:23:09;;;;;;;4.57;1.38;;;16.90;48.80;;;;;;5073106;28;20027;-76
2022/04/20 08:25:35;;;;;;;1.67;0.85;;;16.90;47.50;;;;;;5073179;28;20050;-76
2022/04/20 08:28:00;;;;;;;4.88;1.00;;;17.00;46.80;;;;;;5071944;28;20051;-76
2022/04/20 08:30:27;;;;;;;2.38;1.13;;;16.90;47.30;;;;;;5073164;28;20063;-78
2022/04/20 08:32:53;;;;;;;2.58;0.95;;;17.00;48.20;;;;;;5072924;28;20170;-77
2022/04/20 08:35:19;;;;;;;6.03;1.33;;;17.00;47.60;;;;;;5072390;28;20157;-78
2022/04/20 08:37:45;;;;;;;4.68;1.02;;;17.20;47.10;;;;;;5073266;28;20025;-75
2022/04/20 08:40:12;;;;;;;5.45;1.15;;;17.20;46.70;;;;;;5078209;28;20025;-72
2022/04/20 08:42:39;;;;;;;4.05;0.93;;;17.20;47.10;;;;;;5089282;28;20052;-75
2022/04/20 08:45:05;;;;;;;8.48;1.23;;;17.20;46.90;;;;;;5078712;28;20125;-76
2022/04/20 08:47:39;;;;;;;4.05;1.10;;;17.40;47.50;;;;;;5072059;28;20475;-76
2022/04/20 08:50:06;;;;;;;3.75;0.88;;;17.30;47.60;;;;;;5071998;28;20028;-76
2022/04/20 08:52:38;;;;;;;7.15;1.38;;;17.50;48.00;;;;;;5071928;28;20027;-76
2022/04/20 08:55:11;;;;;;;8.80;1.27;;;17.50;47.90;;;;;;5072301;28;20111;-75
2022/04/20 08:57:37;;;;;;;4.53;1.10;;;17.50;47.60;;;;;;5071566;28;20040;-76
2022/04/20 09:00:05;;;;;;;1.70;0.80;;;17.30;47.90;;;;;;5072205;28;20392;-75
2022/04/20 09:02:31;;;;;;;3.28;1.15;;;17.20;47.30;;;;;;5073166;28;20020;-75
2022/04/20 09:04:57;;;;;;;2.78;1.20;;;17.30;47.80;;;;;;5073292;28;20020;-76
2022/04/20 09:07:24;;;;;;;3.47;1.10;;;17.50;48.10;;;;;;5073320;28;20129;-75
2022/04/20 09:09:50;;;;;;;1.95;1.00;;;17.50;48.20;;;;;;5073075;28;20036;-75
2022/04/20 09:12:17;;;;;;;4.80;1.17;;;17.70;45.70;;;;;;5073250;28;20033;-74
2022/04/20 09:14:48;;;;;;;5.68;1.00;;;17.80;46.20;;;;;;5073230;28;20024;-75
2022/04/20 09:17:16;;;;;;;3.90;1.20;;;17.90;45.60;;;;;;5073220;28;20064;-75
2022/04/20 09:19:43;;;;;;;3.25;0.90;;;17.90;45.70;;;;;;5073016;28;20020;-76
2022/04/20 09:22:26;;;;;;;2.90;1.25;;;17.90;44.20;;;;;;5073096;28;20021;-76
2022/04/20 09:25:06;;;;;;;3.00;0.85;;;17.90;45.00;;;;;;5073534;28;20091;-75
2022/04/20 09:27:34;;;;;;;4.13;1.55;;;17.90;45.60;;;;;;5073518;28;20111;-77
2022/04/20 09:30:00;;;;;;;3.88;1.10;;;17.90;45.30;;;;;;5073125;28;20146;-76
2022/04/20 09:32:30;;;;;;;3.08;0.88;;;17.90;47.10;;;;;;5073375;28;20472;-76
2022/04/20 09:34:59;;;;;;;2.65;1.25;;;18.00;45.50;;;;;;5073409;28;20434;-75
2022/04/20 09:37:25;;;;;;;2.30;1.15;;;18.20;46.50;;;;;;5080820;28;20032;-73
2022/04/20 09:39:52;;;;;;;2.22;0.70;;;18.30;45.20;;;;;;5078930;28;20024;-76
2022/04/20 09:42:19;;;;;;;4.93;1.45;;;18.40;43.50;;;;;;5073772;28;20029;-76
2022/04/20 09:45:00;;;;;;;2.45;0.98;;;18.50;44.80;;;;;;5073675;28;20033;-77
2022/04/20 09:50:18;;;;;;;9.43;1.90;;;18.60;44.30;;;;;;5077795;28;20062;-76
2022/04/20 09:52:49;;;;;;;3.97;1.25;;;18.80;44.00;;;;;;5093222;28;20046;-76
2022/04/20 09:55:28;;;;;;;3.45;1.15;;;18.80;44.40;;;;;;5084019;28;20384;-75
2022/04/20 09:58:08;;;;;;;4.57;1.60;;;18.90;44.90;;;;;;5072954;28;20032;-77
2022/04/20 10:00:41;;;;;;;4.30;1.30;;;18.90;44.70;;;;;;5073291;28;20025;-79
2022/04/20 10:03:07;;;;;;;4.55;1.40;;;19.00;44.30;;;;;;5074143;28;20051;-79
2022/04/20 10:05:33;;;;;;;3.55;0.95;;;19.00;43.80;;;;;;5075129;28;20040;-77
2022/04/20 10:07:59;;;;;;;4.05;1.27;;;19.00;42.60;;;;;;5075209;28;20016;-78
2022/04/20 10:10:27;;;;;;;3.10;1.20;;;19.10;43.80;;;;;;5074857;28;20036;-78
2022/04/20 10:12:54;;;;;;;3.33;1.10;;;19.10;44.10;;;;;;5075712;28;20025;-78
2022/04/20 10:18:19;;;;;;;2.05;0.75;;;19.20;42.10;;;;;;5073355;28;20031;-78
2022/04/20 10:20:48;;;;;;;3.63;0.90;;;19.20;41.40;;;;;;5073588;28;20045;-78
2022/04/20 10:23:18;;;;;;;4.97;1.38;;;19.30;43.60;;;;;;5073800;28;20119;-78
2022/04/20 10:25:44;;;;;;;3.70;1.05;;;19.20;43.30;;;;;;5074592;28;20041;-78
2022/04/20 10:28:23;;;;;;;2.10;0.75;;;19.40;43.90;;;;;;5074058;28;20483;-78
2022/04/20 10:31:01;;;;;;;2.92;0.93;;;19.50;43.30;;;;;;5073338;28;20025;-78
2022/04/20 10:33:31;;;;;;;2.72;1.10;;;19.60;43.70;;;;;;5088201;28;20066;-78
2022/04/20 10:36:05;;;;;;;4.40;1.20;;;19.70;44.50;;;;;;5083441;28;20039;-79
2022/04/20 10:38:32;;;;;;;2.45;1.00;;;19.80;43.20;;;;;;5076302;28;20024;-79
2022/04/20 10:41:18;;;;;;;3.03;1.20;;;19.80;42.60;;;;;;5072019;28;20570;-79
2022/04/20 10:43:44;;;;;;;3.22;1.27;;;19.80;42.60;;;;;;5075226;28;20029;-77
2022/04/20 10:46:20;;;;;;;2.05;1.33;;;19.80;41.90;;;;;;5074145;28;20471;-79
2022/04/20 10:49:16;;;;;;;5.70;1.17;;;19.90;43.00;;;;;;5072881;28;20139;-78
2022/04/20 10:51:42;;;;;;;2.33;1.20;;;20.00;42.40;;;;;;5074508;28;20116;-78
2022/04/20 10:54:17;;;;;;;3.55;0.98;;;20.00;44.10;;;;;;5074257;28;20113;-75
2022/04/20 10:57:09;;;;;;;2.80;0.70;;;20.10;43.40;;;;;;5074894;28;20364;-72
2022/04/20 10:59:34;;;;;;;4.07;0.95;;;20.10;43.10;;;;;;5073795;28;20032;-73
2022/04/20 11:02:03;;;;;;;1.98;1.20;;;20.10;42.40;;;;;;5073894;28;20025;-72
2022/04/20 11:04:33;;;;;;;6.25;1.05;;;20.10;43.60;;;;;;5073372;28;20025;-72
2022/04/20 11:06:59;;;;;;;5.70;0.93;;;20.30;43.00;;;;;;5073870;28;20040;-72
2022/04/20 11:09:45;;;;;;;2.67;0.93;;;20.40;42.40;;;;;;5073413;28;20504;-72
2022/04/20 11:21:07;;;;;;;2.08;0.82;;;20.70;41.30;;;;;;5072916;28;20086;-72
2022/04/20 11:23:53;;;;;;;5.60;1.30;;;20.80;42.20;;;;;;5073796;28;20111;-72
2022/04/20 11:26:24;;;;;;;8.05;1.60;;;20.90;42.40;;;;;;5073232;28;20052;-72
2022/04/20 11:28:58;;;;;;;4.40;1.53;;;21.00;41.80;;;;;;5075380;28;20029;-70
2022/04/20 11:31:25;;;;;;;4.45;1.30;;;21.00;42.70;;;;;;5081193;28;20105;-73
2022/04/20 11:33:52;;;;;;;2.15;1.17;;;20.90;42.10;;;;;;5078224;28;20032;-76
2022/04/20 11:36:19;;;;;;;1.85;0.80;;;21.10;41.70;;;;;;5072921;28;20036;-74
2022/04/20 11:38:46;;;;;;;2.03;1.00;;;21.10;40.90;;;;;;5074084;28;20044;-74
2022/04/20 11:41:13;;;;;;;1.80;1.02;;;21.10;40.80;;;;;;5074929;28;20031;-73
2022/04/20 11:43:40;;;;;;;3.53;1.33;;;21.00;41.70;;;;;;5074652;28;20021;-75
2022/04/20 11:46:07;;;;;;;5.07;1.40;;;21.10;41.10;;;;;;5075004;28;20021;-74
2022/04/20 11:48:35;;;;;;;3.55;1.55;;;21.00;41.70;;;;;;5074565;28;20025;-75
2022/04/20 11:51:01;;;;;;;2.70;1.33;;;21.00;42.20;;;;;;5073160;28;20028;-76
2022/04/20 11:53:35;;;;;;;1.92;0.95;;;21.00;41.00;;;;;;5073224;28;20537;-76
2022/04/20 11:56:02;;;;;;;1.58;0.95;;;21.00;41.80;;;;;;5073021;28;20039;-73
2022/04/20 11:58:29;;;;;;;3.95;1.13;;;21.00;40.80;;;;;;5073037;28;20036;-77
2022/04/20 12:01:02;;;;;;;2.58;1.10;;;21.10;41.20;;;;;;5073721;28;20021;-76
2022/04/20 12:03:50;;;;;;;5.15;1.20;;;21.20;42.00;;;;;;5074333;28;20568;-76
2022/04/20 12:06:15;;;;;;;4.22;1.00;;;21.20;42.60;;;;;;5074629;28;20383;-75
2022/04/20 12:08:41;;;;;;;2.03;0.93;;;21.30;42.00;;;;;;5074948;28;20035;-77
2022/04/20 12:11:09;;;;;;;3.25;0.80;;;21.20;41.30;;;;;;5074876;28;20127;-77
2022/04/20 12:13:36;;;;;;;2.10;1.02;;;21.10;40.80;;;;;;5074436;28;20110;-74
2022/04/20 12:16:08;;;;;;;3.38;1.00;;;21.10;41.20;;;;;;5074213;28;20032;-75
2022/04/20 12:18:40;;;;;;;2.90;0.90;;;21.10;40.60;;;;;;5073908;28;20028;-75
2022/04/20 12:21:27;;;;;;;2.00;0.80;;;21.00;41.80;;;;;;5073165;28;20496;-74
2022/04/20 12:23:53;;;;;;;3.13;0.98;;;21.10;42.00;;;;;;5062445;28;20028;-74
2022/04/20 12:26:28;;;;;;;1.45;1.02;;;21.20;42.30;;;;;;5084930;28;20059;-76
2022/04/20 12:29:03;;;;;;;1.77;1.20;;;21.30;42.70;;;;;;5087845;28;20028;-75
2022/04/20 12:31:30;;;;;;;14.60;1.60;;;21.30;42.50;;;;;;5075718;28;20027;-75
2022/04/20 12:34:06;;;;;;;3.50;1.17;;;21.40;41.70;;;;;;5074041;28;20074;-75
2022/04/20 12:36:50;;;;;;;3.80;1.42;;;21.60;42.60;;;;;;5074020;28;20056;-74
2022/04/20 12:39:38;;;;;;;4.68;1.30;;;21.50;43.70;;;;;;5073933;28;20482;-74
2022/04/20 12:42:09;;;;;;;4.20;1.13;;;21.60;43.20;;;;;;5073801;28;20027;-74
2022/04/20 12:44:40;;;;;;;1.40;0.90;;;21.50;43.00;;;;;;5073721;28;20459;-75
2022/04/20 12:47:08;;;;;;;1.45;0.63;;;21.50;41.90;;;;;;5073868;28;20039;-74
2022/04/20 12:49:44;;;;;;;2.08;0.70;;;21.60;42.10;;;;;;5073808;28;20104;-75
2022/04/20 12:52:13;;;;;;;1.40;1.00;;;21.70;42.50;;;;;;5073572;28;20544;-74
2022/04/20 12:54:40;;;;;;;2.88;1.15;;;21.80;43.20;;;;;;5073104;28;20139;-74
2022/04/20 13:03:03;;;;;;;3.15;0.95;;;22.00;41.70;;;;;;5074662;28;20085;-75
2022/04/20 13:05:30;;;;;;;2.90;1.23;;;22.00;41.90;;;;;;5073640;28;20024;-75
2022/04/20 13:07:56;;;;;;;2.75;1.17;;;21.80;41.50;;;;;;5073657;28;20086;-75
2022/04/20 13:10:23;;;;;;;6.97;1.70;;;21.80;43.30;;;;;;5073175;28;20500;-75
2022/04/20 13:12:53;;;;;;;3.70;1.10;;;21.80;41.70;;;;;;5072337;28;20025;-75
2022/04/20 13:15:20;;;;;;;6.18;1.20;;;21.80;42.80;;;;;;5073182;28;20029;-75
2022/04/20 13:17:46;;;;;;;5.40;1.05;;;21.90;42.90;;;;;;5073509;28;20065;-75
2022/04/20 13:20:12;;;;;;;4.72;1.00;;;21.90;41.10;;;;;;5073671;28;20021;-74
2022/04/20 13:22:38;;;;;;;1.33;0.95;;;21.80;42.70;;;;;;5078339;28;20024;-74
2022/04/20 13:27:55;;;;;;;5.95;1.10;;;22.00;42.10;;;;;;5073503;28;20439;-74
2022/04/20 13:30:29;;;;;;;2.42;0.93;;;22.00;41.70;;;;;;5073431;28;20024;-75
2022/04/20 13:32:55;;;;;;;2.30;1.23;;;22.00;42.10;;;;;;5073425;28;20103;-74
2022/04/20 13:35:22;;;;;;;3.35;1.90;;;22.00;42.70;;;;;;5075828;28;20471;-75